KGAD

Northeast Alabama Regional Airport

Gadsden, Alabama, USA
METAR KGAD 150256Z AUTO 00000KT 10SM CLR 23/23 A3005 RMK AO2 SLP173 T02330233 53013
Observed Flight Rules
Aug-15 @ 02:56 UTC (39 minutes ago) Visual Flight Rules
Visibility Clouds
10 miles
  • Clear skies
Temperatures Readings
Current 23°C / 73°F
Dewpoint 23°C / 73°F
Humidity 100%
Altimeter 30.05" Hg
Pressure 1017.3 hPa
Elevation 173
METAR KGAD 150256Z AUTO 00000KT 10SM CLR 23/23 A3005 RMK AO2 SLP173 T02330233 53013
Observed Flight Rules
Aug-15 @ 02:56 UTC
(39 minutes ago)
VFR
Clouds
  • Clear skies
Temperature Dewpoint
23°C / 73°F 23°C / 73°F
Humidity Altimeter Pressure
100% 30.05" Hg 1017.3 hPa